createdAt,value
2016-08-13T00:00:39.044Z,0
2016-08-13T00:01:39.041Z,0
2016-08-13T00:03:10.341Z,0
2016-08-13T00:03:38.289Z,0
2016-08-13T00:04:39.002Z,0
2016-08-13T00:05:39.010Z,0
2016-08-13T00:06:38.994Z,0
2016-08-13T00:07:38.994Z,0
2016-08-13T00:08:38.998Z,0
2016-08-13T00:09:39.008Z,0
2016-08-13T00:10:38.994Z,0
2016-08-13T00:11:38.990Z,0
2016-08-13T00:12:38.285Z,0
2016-08-13T00:13:38.990Z,0
2016-08-13T00:14:38.990Z,0
2016-08-13T00:15:38.990Z,0
2016-08-13T00:16:38.989Z,0
2016-08-13T00:17:38.988Z,0
2016-08-13T00:18:38.986Z,0
2016-08-13T00:19:38.986Z,0
2016-08-13T00:20:38.989Z,0
2016-08-13T00:21:39.010Z,0
2016-08-13T00:22:38.982Z,0
2016-08-13T00:23:38.986Z,0
2016-08-13T00:24:38.990Z,0
2016-08-13T00:25:38.991Z,0
2016-08-13T00:26:38.986Z,0
2016-08-13T00:27:38.990Z,0
2016-08-13T00:28:38.981Z,0
2016-08-13T00:29:38.983Z,0
2016-08-13T00:30:38.986Z,0
2016-08-13T00:31:38.975Z,0
2016-08-13T00:32:38.975Z,0
2016-08-13T00:33:38.974Z,0
2016-08-13T00:34:38.979Z,0
2016-08-13T00:35:38.970Z,0
2016-08-13T00:36:39.870Z,0
2016-08-13T00:37:40.138Z,0
2016-08-13T00:38:39.941Z,0
2016-08-13T00:39:39.102Z,0
2016-08-13T00:40:38.976Z,0
2016-08-13T00:41:38.983Z,0
2016-08-13T00:42:38.989Z,0
2016-08-13T00:43:38.995Z,0
2016-08-13T00:44:39.011Z,0
2016-08-13T00:45:39.018Z,0
2016-08-13T00:46:39.006Z,0
2016-08-13T00:48:23.046Z,0
2016-08-13T00:48:38.974Z,0
2016-08-13T00:49:38.958Z,0
2016-08-13T00:50:38.958Z,0
2016-08-13T00:51:38.967Z,0
2016-08-13T00:52:38.962Z,0
2016-08-13T00:53:38.954Z,0
2016-08-13T00:54:38.955Z,0
2016-08-13T00:55:38.956Z,0
2016-08-13T00:56:38.954Z,0
2016-08-13T00:57:38.954Z,0
2016-08-13T00:58:38.975Z,0
2016-08-13T00:59:38.959Z,0
2016-08-13T01:00:38.235Z,0
2016-08-13T01:01:38.955Z,0
2016-08-13T01:02:38.948Z,0
2016-08-13T01:03:38.948Z,0
2016-08-13T01:04:38.947Z,0
2016-08-13T01:05:38.955Z,0
2016-08-13T01:06:38.948Z,0
2016-08-13T01:07:38.952Z,0
2016-08-13T01:08:38.947Z,0
2016-08-13T01:09:38.947Z,0
2016-08-13T01:10:39.004Z,0
2016-08-13T01:11:38.939Z,0
2016-08-13T01:12:38.939Z,0
2016-08-13T01:13:38.236Z,0
2016-08-13T01:14:38.947Z,0
2016-08-13T01:15:38.944Z,0
2016-08-13T01:16:38.944Z,0
2016-08-13T01:17:38.944Z,0
2016-08-13T01:18:38.220Z,0
2016-08-13T01:19:38.940Z,0
2016-08-13T01:20:38.953Z,0
2016-08-13T01:21:38.940Z,0
2016-08-13T01:22:38.936Z,0
2016-08-13T01:23:38.932Z,0
2016-08-13T01:24:38.936Z,0
2016-08-13T01:25:38.928Z,0
2016-08-13T01:26:38.937Z,0
2016-08-13T01:27:38.964Z,0
2016-08-13T01:28:38.972Z,0
2016-08-13T01:29:38.980Z,0
2016-08-13T01:30:38.972Z,0
2016-08-13T01:31:38.972Z,0
2016-08-13T01:32:38.970Z,0
2016-08-13T01:33:38.967Z,0
2016-08-13T01:34:38.922Z,0
2016-08-13T01:35:38.921Z,0
2016-08-13T01:37:41.612Z,0
2016-08-13T01:37:53.273Z,0
2016-08-13T01:38:53.273Z,0
2016-08-13T01:39:53.273Z,0
2016-08-13T01:40:53.286Z,0
2016-08-13T01:41:53.274Z,0
2016-08-13T01:42:53.277Z,0
2016-08-13T01:43:53.282Z,0
2016-08-13T01:44:53.290Z,0
2016-08-13T01:45:53.317Z,0
2016-08-13T01:46:53.307Z,0
2016-08-13T01:47:53.308Z,0
2016-08-13T01:48:53.304Z,0
2016-08-13T01:49:52.585Z,0
2016-08-13T01:50:53.316Z,0
2016-08-13T01:51:53.305Z,0
2016-08-13T01:52:53.320Z,0
2016-08-13T01:53:53.300Z,0
2016-08-13T01:54:53.313Z,0
2016-08-13T01:55:53.322Z,0
2016-08-13T01:56:53.290Z,0
2016-08-13T01:57:53.297Z,0
2016-08-13T01:58:53.301Z,0
2016-08-13T01:59:53.300Z,0
2016-08-13T02:00:53.293Z,0
2016-08-13T02:01:53.293Z,0
2016-08-13T02:02:53.293Z,0
2016-08-13T02:03:52.578Z,0
2016-08-13T02:04:53.289Z,0
2016-08-13T02:05:53.297Z,0
2016-08-13T02:06:53.290Z,0
2016-08-13T02:07:53.289Z,0
2016-08-13T02:08:53.286Z,0
2016-08-13T02:09:53.286Z,0
2016-08-13T02:10:53.286Z,0
2016-08-13T02:11:53.286Z,0
2016-08-13T02:12:53.281Z,0
2016-08-13T02:13:53.282Z,0
2016-08-13T02:14:53.282Z,0
2016-08-13T02:15:53.277Z,0
2016-08-13T02:16:53.278Z,0
2016-08-13T02:17:53.278Z,0
2016-08-13T02:18:53.277Z,0
2016-08-13T02:19:53.277Z,0
2016-08-13T02:20:53.281Z,0
2016-08-13T02:21:53.273Z,0
2016-08-13T02:22:53.277Z,0
2016-08-13T02:23:53.274Z,0
2016-08-13T02:24:52.549Z,0
2016-08-13T02:25:53.276Z,0
2016-08-13T02:26:53.266Z,0
2016-08-13T02:27:53.277Z,0
2016-08-13T02:28:53.266Z,0
2016-08-13T02:29:53.266Z,0
2016-08-13T02:30:53.262Z,0
2016-08-13T02:31:52.541Z,0
2016-08-13T02:32:53.270Z,0
2016-08-13T02:33:53.258Z,0
2016-08-13T02:34:53.256Z,0
2016-08-13T02:35:53.273Z,0
2016-08-13T02:36:53.273Z,0
2016-08-13T02:37:53.258Z,0
2016-08-13T02:38:53.254Z,0
2016-08-13T02:39:53.270Z,0
2016-08-13T02:40:53.254Z,0
2016-08-13T02:41:53.250Z,0
2016-08-13T02:42:53.246Z,0
2016-08-13T02:43:53.262Z,0
2016-08-13T02:44:53.246Z,0
2016-08-13T02:45:53.254Z,0
2016-08-13T02:46:53.266Z,0
2016-08-13T02:47:53.245Z,0
2016-08-13T02:48:53.257Z,0
2016-08-13T02:49:53.250Z,0
2016-08-13T02:50:53.281Z,0
2016-08-13T02:51:53.246Z,0
2016-08-13T02:52:53.238Z,0
2016-08-13T02:53:53.239Z,0
2016-08-13T02:54:53.246Z,0
2016-08-13T02:55:53.235Z,0
2016-08-13T02:56:53.234Z,0
2016-08-13T02:57:53.240Z,0
2016-08-13T02:58:53.241Z,0
2016-08-13T02:59:53.231Z,0
2016-08-13T03:00:52.510Z,0
2016-08-13T03:01:53.231Z,0
2016-08-13T03:02:53.243Z,0
2016-08-13T03:03:53.238Z,0
2016-08-13T03:04:53.240Z,0
2016-08-13T03:05:53.226Z,0
2016-08-13T03:06:53.326Z,0
2016-08-13T03:07:53.223Z,0
2016-08-13T03:08:53.248Z,0
2016-08-13T03:09:53.223Z,0
2016-08-13T03:10:53.219Z,0
2016-08-13T03:11:53.223Z,0
2016-08-13T03:12:53.230Z,0
2016-08-13T03:13:53.220Z,0
2016-08-13T03:14:53.215Z,0
2016-08-13T03:15:53.215Z,0
2016-08-13T03:16:53.211Z,0
2016-08-13T03:17:53.231Z,0
2016-08-13T03:18:53.211Z,0
2016-08-13T03:19:53.219Z,0
2016-08-13T03:20:53.207Z,0
2016-08-13T03:21:53.223Z,0
2016-08-13T03:22:53.220Z,0
2016-08-13T03:23:53.225Z,0
2016-08-13T03:24:53.202Z,0
2016-08-13T03:25:53.209Z,0
2016-08-13T03:26:53.199Z,0
2016-08-13T03:27:53.195Z,0
2016-08-13T03:28:53.204Z,0
2016-08-13T03:29:53.195Z,0
2016-08-13T03:30:53.200Z,0
2016-08-13T03:31:53.204Z,0
2016-08-13T03:32:53.212Z,0
2016-08-13T03:33:53.192Z,0
2016-08-13T03:34:53.193Z,0
2016-08-13T03:35:53.191Z,0
2016-08-13T03:36:52.472Z,0
2016-08-13T03:37:52.471Z,0
2016-08-13T03:38:53.196Z,0
2016-08-13T03:39:53.206Z,0
2016-08-13T03:40:53.184Z,4
2016-08-13T03:41:53.199Z,4
2016-08-13T03:42:53.200Z,0
2016-08-13T03:43:53.184Z,4
2016-08-13T03:44:53.181Z,4
2016-08-13T03:45:53.197Z,4
2016-08-13T03:46:53.179Z,4
2016-08-13T03:47:53.185Z,8
2016-08-13T03:48:53.172Z,8
2016-08-13T03:49:53.180Z,8
2016-08-13T03:50:52.456Z,12
2016-08-13T03:51:53.172Z,12
2016-08-13T03:52:53.163Z,12
2016-08-13T03:53:53.169Z,20
2016-08-13T03:54:53.169Z,20
2016-08-13T03:55:53.165Z,24
2016-08-13T03:56:53.170Z,28
2016-08-13T03:57:53.170Z,32
2016-08-13T03:58:53.161Z,36
2016-08-13T03:59:53.160Z,40
2016-08-13T04:00:53.168Z,48
2016-08-13T04:01:53.163Z,48
2016-08-13T04:02:53.175Z,60
2016-08-13T04:03:53.156Z,68
2016-08-13T04:04:53.165Z,76
2016-08-13T04:05:53.160Z,84
2016-08-13T04:06:53.156Z,96
2016-08-13T04:07:53.152Z,108
2016-08-13T04:08:53.148Z,116
2016-08-13T04:09:53.148Z,132
2016-08-13T04:10:53.149Z,144
2016-08-13T04:11:53.153Z,160
2016-08-13T04:12:53.145Z,172
2016-08-13T04:13:53.140Z,188
2016-08-13T04:14:53.140Z,208
2016-08-13T04:15:53.141Z,224
2016-08-13T04:16:53.148Z,248
2016-08-13T04:17:53.144Z,264
2016-08-13T04:18:53.136Z,288
2016-08-13T04:19:53.141Z,312
2016-08-13T04:20:53.140Z,332
2016-08-13T04:21:52.417Z,356
2016-08-13T04:22:53.133Z,384
2016-08-13T04:23:53.125Z,408
2016-08-13T04:24:53.132Z,432
2016-08-13T04:25:53.133Z,460
2016-08-13T04:26:53.129Z,488
2016-08-13T04:27:53.125Z,516
2016-08-13T04:28:52.401Z,544
2016-08-13T04:29:53.124Z,572
2016-08-13T04:30:53.120Z,600
2016-08-13T04:31:53.120Z,632
2016-08-13T04:32:53.124Z,660
2016-08-13T04:33:53.121Z,688
2016-08-13T04:34:53.118Z,720
2016-08-13T04:35:53.117Z,816
2016-08-13T04:36:53.114Z,980
2016-08-13T04:37:53.118Z,1180
2016-08-13T04:38:53.113Z,1288
2016-08-13T04:39:52.397Z,1356
2016-08-13T04:40:53.113Z,1428
2016-08-13T04:41:53.129Z,1500
2016-08-13T04:42:53.121Z,1572
2016-08-13T04:43:53.117Z,1640
2016-08-13T04:44:53.105Z,1712
2016-08-13T04:45:53.105Z,1800
2016-08-13T04:46:53.106Z,1896
2016-08-13T04:47:53.101Z,2008
2016-08-13T04:48:53.105Z,2200
2016-08-13T04:49:53.108Z,2652
2016-08-13T04:50:53.101Z,3564
2016-08-13T04:51:53.098Z,4436
2016-08-13T04:52:53.106Z,4748
2016-08-13T04:53:53.101Z,4464
2016-08-13T04:54:53.110Z,4852
2016-08-13T04:55:53.098Z,5128
2016-08-13T04:56:53.110Z,5164
2016-08-13T04:57:53.111Z,5236
2016-08-13T04:58:53.103Z,5560
2016-08-13T04:59:53.102Z,5908
2016-08-13T05:00:53.095Z,6140
2016-08-13T05:01:53.102Z,6460
2016-08-13T05:02:53.098Z,6696
2016-08-13T05:03:53.095Z,6908
2016-08-13T05:04:53.099Z,6980
2016-08-13T05:05:53.099Z,7236
2016-08-13T05:06:53.199Z,7640
2016-08-13T05:07:53.100Z,7752
2016-08-13T05:08:53.099Z,7776
2016-08-13T05:09:53.099Z,8032
2016-08-13T05:10:53.099Z,8452
2016-08-13T05:11:52.379Z,8744
2016-08-13T05:12:53.103Z,9092
2016-08-13T05:13:53.115Z,9140
2016-08-13T05:14:53.107Z,9168
2016-08-13T05:15:53.103Z,10104
2016-08-13T05:16:53.103Z,9732
2016-08-13T05:17:53.111Z,9660
2016-08-13T05:18:53.119Z,10200
2016-08-13T05:19:53.106Z,10680
2016-08-13T05:20:53.108Z,10992
2016-08-13T05:21:53.119Z,11080
2016-08-13T05:22:53.115Z,11160
2016-08-13T05:23:53.120Z,11400
2016-08-13T05:24:53.115Z,11680
2016-08-13T05:25:53.127Z,12232
2016-08-13T05:26:53.319Z,12076
2016-08-13T05:27:53.119Z,12424
2016-08-13T05:28:53.134Z,12960
2016-08-13T05:29:53.127Z,13224
2016-08-13T05:30:53.128Z,13580
2016-08-13T05:31:53.131Z,13448
2016-08-13T05:32:53.143Z,14816
2016-08-13T05:33:53.140Z,14644
2016-08-13T05:34:53.139Z,14476
2016-08-13T05:35:53.143Z,15200
2016-08-13T05:36:53.156Z,15648
2016-08-13T05:37:53.147Z,15552
2016-08-13T05:38:53.143Z,15712
2016-08-13T05:39:53.159Z,16256
2016-08-13T05:40:53.155Z,16992
2016-08-13T05:41:53.159Z,17728
2016-08-13T05:42:53.159Z,18112
2016-08-13T05:43:53.163Z,18208
2016-08-13T05:44:53.176Z,18880
2016-08-13T05:45:53.172Z,18784
2016-08-13T05:46:53.183Z,18816
2016-08-13T05:47:53.176Z,18784
2016-08-13T05:48:53.180Z,19552
2016-08-13T05:49:53.187Z,20448
2016-08-13T05:50:53.188Z,20224
2016-08-13T05:51:53.191Z,20192
2016-08-13T05:52:53.204Z,20992
2016-08-13T05:53:53.204Z,21344
2016-08-13T05:54:53.204Z,22432
2016-08-13T05:55:53.212Z,22784
2016-08-13T05:56:53.211Z,22880
2016-08-13T05:57:53.220Z,23840
2016-08-13T05:58:53.235Z,24064
2016-08-13T05:59:53.224Z,24928
2016-08-13T06:00:53.227Z,26752
2016-08-13T06:01:53.242Z,25920
2016-08-13T06:02:53.240Z,26656
2016-08-13T06:03:53.244Z,27136
2016-08-13T06:04:53.255Z,27040
2016-08-13T06:05:53.260Z,26752
2016-08-13T06:06:53.260Z,27296
2016-08-13T06:07:53.260Z,28704
2016-08-13T06:08:53.276Z,29440
2016-08-13T06:09:53.276Z,29056
2016-08-13T06:10:53.275Z,29120
2016-08-13T06:11:53.280Z,29344
2016-08-13T06:12:53.288Z,31296
2016-08-13T06:13:53.293Z,30784
2016-08-13T06:14:53.297Z,29472
2016-08-13T06:15:53.313Z,30656
2016-08-13T06:16:53.308Z,30528
2016-08-13T06:17:53.312Z,30304
2016-08-13T06:18:53.327Z,32064
2016-08-13T06:19:52.609Z,33632
2016-08-13T06:20:53.342Z,35040
2016-08-13T06:21:52.625Z,34880
2016-08-13T06:22:53.341Z,34496
2016-08-13T06:23:53.348Z,33600
2016-08-13T06:24:53.353Z,33024
2016-08-13T06:25:52.639Z,34176
2016-08-13T06:26:53.364Z,34720
2016-08-13T06:27:53.373Z,34080
2016-08-13T06:28:53.376Z,34016
2016-08-13T06:29:53.385Z,33024
2016-08-13T06:30:53.400Z,33984
2016-08-13T06:31:53.397Z,34720
2016-08-13T06:32:53.405Z,35872
2016-08-13T06:33:53.409Z,35616
2016-08-13T06:34:53.416Z,35776
2016-08-13T06:35:53.422Z,35744
2016-08-13T06:36:53.432Z,34976
2016-08-13T06:37:53.445Z,36704
2016-08-13T06:38:53.441Z,38144
2016-08-13T06:39:53.453Z,39008
2016-08-13T06:40:53.467Z,38624
2016-08-13T06:41:53.466Z,37984
2016-08-13T06:42:53.473Z,37760
2016-08-13T06:43:53.478Z,39008
2016-08-13T06:44:53.490Z,39488
2016-08-13T06:45:53.489Z,40416
2016-08-13T06:46:52.785Z,42272
2016-08-13T06:47:53.506Z,42528
2016-08-13T06:48:53.514Z,41344
2016-08-13T06:49:53.517Z,40704
2016-08-13T06:50:53.529Z,43360
2016-08-13T06:51:53.534Z,43104
2016-08-13T06:52:53.542Z,39488
2016-08-13T06:53:53.553Z,36224
2016-08-13T06:54:53.558Z,36352
2016-08-13T06:55:53.574Z,36032
2016-08-13T06:56:53.578Z,34400
2016-08-13T06:57:53.578Z,31424
2016-08-13T06:58:53.587Z,32544
2016-08-13T06:59:53.610Z,33344
2016-08-13T07:00:53.618Z,32576
2016-08-13T07:01:53.610Z,29792
2016-08-13T07:02:52.898Z,29472
2016-08-13T07:03:53.639Z,29760
2016-08-13T07:04:53.634Z,23424
2016-08-13T07:05:53.642Z,21664
2016-08-13T07:06:53.750Z,22528
2016-08-13T07:07:53.662Z,24512
2016-08-13T07:08:53.666Z,25152
2016-08-13T07:09:53.675Z,27264
2016-08-13T07:10:53.686Z,30112
2016-08-13T07:11:53.691Z,32896
2016-08-13T07:12:53.703Z,35840
2016-08-13T07:13:53.708Z,37408
2016-08-13T07:14:53.714Z,39808
2016-08-13T07:15:53.724Z,42976
2016-08-13T07:16:53.011Z,43104
2016-08-13T07:17:53.740Z,43872
2016-08-13T07:18:53.751Z,42912
2016-08-13T07:19:53.763Z,43040
2016-08-13T07:20:53.767Z,43712
2016-08-13T07:21:53.776Z,45536
2016-08-13T07:22:53.796Z,44864
2016-08-13T07:23:53.791Z,42592
2016-08-13T07:24:53.799Z,44896
2016-08-13T07:25:53.811Z,44320
2016-08-13T07:26:53.815Z,42144
2016-08-13T07:27:53.831Z,42656
2016-08-13T07:28:53.836Z,42784
2016-08-13T07:29:53.843Z,42304
2016-08-13T07:30:53.135Z,43200
2016-08-13T07:31:53.864Z,44576
2016-08-13T07:32:53.879Z,43264
2016-08-13T07:33:53.879Z,43392
2016-08-13T07:34:53.887Z,42208
2016-08-13T07:35:53.899Z,42400
2016-08-13T07:36:53.907Z,40640
2016-08-13T07:37:53.915Z,39456
2016-08-13T07:38:53.923Z,40192
2016-08-13T07:39:53.936Z,40192
2016-08-13T07:40:53.960Z,40160
2016-08-13T07:41:53.951Z,40096
2016-08-13T07:42:53.244Z,40992
2016-08-13T07:43:53.987Z,40800
2016-08-13T07:44:53.984Z,40512
2016-08-13T07:45:53.992Z,41216
2016-08-13T07:46:54.001Z,42432
2016-08-13T07:47:54.012Z,43328
2016-08-13T07:48:54.016Z,44800
2016-08-13T07:49:54.028Z,43232
2016-08-13T07:50:54.038Z,44096
2016-08-13T07:51:54.052Z,46240
2016-08-13T07:52:54.056Z,46848
2016-08-13T07:53:54.068Z,46144
2016-08-13T07:54:54.077Z,46240
2016-08-13T07:55:54.084Z,46848
2016-08-13T07:56:54.092Z,45728
2016-08-13T07:57:54.105Z,47968
2016-08-13T07:58:54.112Z,47200
2016-08-13T07:59:54.125Z,46368
2016-08-13T08:00:54.145Z,47232
2016-08-13T08:01:54.137Z,45568
2016-08-13T08:02:54.153Z,47040
2016-08-13T08:03:54.162Z,46464
2016-08-13T08:04:54.172Z,43616
2016-08-13T08:05:54.188Z,43296
2016-08-13T08:06:54.288Z,44896
2016-08-13T08:07:54.199Z,46688
2016-08-13T08:08:54.216Z,48160
2016-08-13T08:09:53.496Z,46944
2016-08-13T08:10:54.240Z,46528
2016-08-13T08:11:54.245Z,43936
2016-08-13T08:12:54.248Z,41696
2016-08-13T08:13:54.256Z,41952
2016-08-13T08:14:54.264Z,43296
2016-08-13T08:15:54.276Z,45952
2016-08-13T08:16:54.293Z,45152
2016-08-13T08:17:54.296Z,37824
2016-08-13T08:18:54.305Z,20512
2016-08-13T08:19:54.317Z,6952
2016-08-13T08:20:54.324Z,6096
2016-08-13T08:21:54.332Z,5720
2016-08-13T08:22:54.345Z,5536
2016-08-13T08:23:54.352Z,5428
2016-08-13T08:24:54.361Z,5348
2016-08-13T08:25:54.373Z,5264
2016-08-13T08:26:54.384Z,5176
2016-08-13T08:27:54.392Z,5100
2016-08-13T08:28:54.401Z,5016
2016-08-13T08:29:54.421Z,4956
2016-08-13T08:30:54.421Z,4896
2016-08-13T08:31:54.429Z,4840
2016-08-13T08:32:54.433Z,4780
2016-08-13T08:33:54.449Z,4724
2016-08-13T08:34:54.473Z,4676
2016-08-13T08:35:54.475Z,4628
2016-08-13T08:36:54.477Z,4576
2016-08-13T08:37:54.485Z,4524
2016-08-13T08:38:54.493Z,4488
2016-08-13T08:39:54.509Z,4440
2016-08-13T08:40:54.518Z,4400
2016-08-13T08:41:54.550Z,4364
2016-08-13T08:42:54.542Z,4332
2016-08-13T08:43:53.817Z,4288
2016-08-13T08:44:53.833Z,4252
2016-08-13T08:45:54.557Z,4224
2016-08-13T08:46:54.562Z,4192
2016-08-13T08:47:54.574Z,4160
2016-08-13T08:48:54.582Z,4124
2016-08-13T08:49:54.590Z,4092
2016-08-13T08:50:54.598Z,4052
2016-08-13T08:51:54.606Z,4016
2016-08-13T08:52:54.618Z,3980
2016-08-13T08:53:53.910Z,3936
2016-08-13T08:54:54.642Z,3900
2016-08-13T08:55:54.653Z,3864
2016-08-13T08:56:54.658Z,3832
2016-08-13T08:57:54.662Z,3800
2016-08-13T08:58:54.666Z,3260
2016-08-13T08:59:54.682Z,336
2016-08-13T09:00:54.682Z,332
2016-08-13T09:01:54.690Z,252
2016-08-13T09:02:54.702Z,256
2016-08-13T09:03:54.707Z,252
2016-08-13T09:04:54.715Z,252
2016-08-13T09:05:54.727Z,252
2016-08-13T09:06:54.735Z,252
2016-08-13T09:07:54.027Z,252
2016-08-13T09:08:54.751Z,252
2016-08-13T09:09:54.750Z,252
2016-08-13T09:10:54.754Z,248
2016-08-13T09:11:54.766Z,248
2016-08-13T09:12:54.770Z,244
2016-08-13T09:13:54.774Z,244
2016-08-13T09:14:54.786Z,244
2016-08-13T09:15:54.790Z,240
2016-08-13T09:16:54.795Z,236
2016-08-13T09:17:54.811Z,236
2016-08-13T09:18:54.806Z,240
2016-08-13T09:19:54.815Z,232
2016-08-13T09:20:54.818Z,232
2016-08-13T09:21:54.827Z,232
2016-08-13T09:22:54.831Z,232
2016-08-13T09:23:54.839Z,228
2016-08-13T09:24:54.843Z,228
2016-08-13T09:25:54.851Z,228
2016-08-13T09:26:54.854Z,224
2016-08-13T09:27:54.867Z,224
2016-08-13T09:28:54.867Z,224
2016-08-13T09:29:54.871Z,224
2016-08-13T09:30:54.875Z,220
2016-08-13T09:31:54.883Z,220
2016-08-13T09:32:54.886Z,220
2016-08-13T09:33:54.174Z,220
2016-08-13T09:34:54.899Z,220
2016-08-13T09:35:54.186Z,216
2016-08-13T09:36:54.912Z,216
2016-08-13T09:37:54.910Z,212
2016-08-13T09:38:54.199Z,208
2016-08-13T09:39:54.923Z,204
2016-08-13T09:40:54.927Z,196
2016-08-13T09:41:54.932Z,192
2016-08-13T09:42:54.215Z,188
2016-08-13T09:43:54.950Z,184
2016-08-13T09:44:54.947Z,176
2016-08-13T09:45:54.953Z,172
2016-08-13T09:46:54.954Z,168
2016-08-13T09:47:54.960Z,164
2016-08-13T09:48:54.964Z,156
2016-08-13T09:49:54.967Z,156
2016-08-13T09:50:54.975Z,152
2016-08-13T09:51:54.980Z,148
2016-08-13T09:52:54.988Z,148
2016-08-13T09:53:54.987Z,148
2016-08-13T09:54:54.996Z,152
2016-08-13T09:55:54.275Z,152
2016-08-13T09:56:55.003Z,152
2016-08-13T09:57:55.004Z,152
2016-08-13T09:58:55.011Z,152
2016-08-13T09:59:55.011Z,152
2016-08-13T10:00:55.015Z,152
2016-08-13T10:01:55.019Z,152
2016-08-13T10:02:55.024Z,152
2016-08-13T10:03:55.033Z,148
2016-08-13T10:04:55.033Z,148
2016-08-13T10:05:55.036Z,148
2016-08-13T10:06:55.092Z,152
2016-08-13T10:07:55.057Z,148
2016-08-13T10:08:55.048Z,148
2016-08-13T10:09:55.056Z,152
2016-08-13T10:10:55.056Z,148
2016-08-13T10:11:55.066Z,152
2016-08-13T10:12:55.064Z,148
2016-08-13T10:13:55.068Z,152
2016-08-13T10:14:55.073Z,152
2016-08-13T10:15:55.084Z,152
2016-08-13T10:16:55.080Z,148
2016-08-13T10:17:55.088Z,152
2016-08-13T10:18:55.097Z,152
2016-08-13T10:19:55.095Z,152
2016-08-13T10:20:55.093Z,152
2016-08-13T10:21:54.376Z,148
2016-08-13T10:22:55.101Z,152
2016-08-13T10:23:55.110Z,152
2016-08-13T10:24:55.117Z,152
2016-08-13T10:25:55.109Z,152
2016-08-13T10:26:55.117Z,152
2016-08-13T10:27:55.124Z,152
2016-08-13T10:28:55.122Z,152
2016-08-13T10:29:55.204Z,152
2016-08-13T10:30:55.137Z,152
2016-08-13T10:31:55.133Z,152
2016-08-13T10:32:55.152Z,152
2016-08-13T10:33:55.147Z,152
2016-08-13T10:34:55.145Z,156
2016-08-13T10:35:55.156Z,152
2016-08-13T10:36:55.148Z,156
2016-08-13T10:37:55.153Z,152
2016-08-13T10:38:55.160Z,152
2016-08-13T10:39:55.160Z,152
2016-08-13T10:40:55.164Z,152
2016-08-13T10:41:55.177Z,152
2016-08-13T10:42:55.169Z,152
2016-08-13T10:43:55.173Z,152
2016-08-13T10:44:55.176Z,152
2016-08-13T10:45:55.180Z,152
2016-08-13T10:46:55.185Z,156
2016-08-13T10:47:55.184Z,152
2016-08-13T10:48:54.468Z,156
2016-08-13T10:49:55.193Z,156
2016-08-13T10:50:55.196Z,152
2016-08-13T10:51:55.197Z,152
2016-08-13T10:52:55.198Z,152
2016-08-13T10:53:55.205Z,152
2016-08-13T10:54:54.488Z,152
2016-08-13T10:55:55.213Z,156
2016-08-13T10:56:55.213Z,156
2016-08-13T10:57:55.220Z,156
2016-08-13T10:58:55.222Z,156
2016-08-13T10:59:55.225Z,156
2016-08-13T11:00:55.229Z,152
2016-08-13T11:01:55.238Z,152
2016-08-13T11:02:55.233Z,152
2016-08-13T11:03:55.237Z,152
2016-08-13T11:04:55.246Z,156
2016-08-13T11:05:55.242Z,152
2016-08-13T11:06:55.246Z,156
2016-08-13T11:07:55.259Z,152
2016-08-13T11:08:55.250Z,152
2016-08-13T11:09:55.253Z,152
2016-08-13T11:10:55.266Z,152
2016-08-13T11:11:55.279Z,152
2016-08-13T11:12:55.258Z,152
2016-08-13T11:13:55.267Z,152
2016-08-13T11:14:55.270Z,152
2016-08-13T11:15:55.282Z,156
2016-08-13T11:16:55.283Z,152
2016-08-13T11:17:55.282Z,152
2016-08-13T11:18:55.282Z,152
2016-08-13T11:19:55.283Z,152
2016-08-13T11:20:55.286Z,152
2016-08-13T11:21:55.294Z,152
2016-08-13T11:22:55.294Z,148
2016-08-13T11:23:55.298Z,152
2016-08-13T11:24:55.300Z,148
2016-08-13T11:25:55.302Z,148
2016-08-13T11:26:55.303Z,148
2016-08-13T11:27:55.306Z,144
2016-08-13T11:28:55.311Z,148
2016-08-13T11:29:55.315Z,144
2016-08-13T11:30:55.315Z,144
2016-08-13T11:31:55.319Z,148
2016-08-13T11:32:55.320Z,144
2016-08-13T11:33:55.323Z,144
2016-08-13T11:34:55.326Z,144
2016-08-13T11:35:55.327Z,144
2016-08-13T11:36:55.346Z,144
2016-08-13T11:37:55.335Z,144
2016-08-13T11:38:55.335Z,144
2016-08-13T11:39:55.339Z,140
2016-08-13T11:40:55.360Z,140
2016-08-13T11:41:55.344Z,140
2016-08-13T11:42:55.351Z,140
2016-08-13T11:43:55.360Z,140
2016-08-13T11:44:55.351Z,136
2016-08-13T11:45:55.355Z,136
2016-08-13T11:46:55.359Z,140
2016-08-13T11:47:55.372Z,136
2016-08-13T11:48:55.363Z,136
2016-08-13T11:49:55.372Z,132
2016-08-13T11:50:55.372Z,132
2016-08-13T11:51:55.371Z,132
2016-08-13T11:52:55.371Z,132
2016-08-13T11:53:55.376Z,132
2016-08-13T11:54:55.384Z,132
2016-08-13T11:55:55.380Z,132
2016-08-13T11:56:55.384Z,128
2016-08-13T11:57:55.384Z,128
2016-08-13T11:58:55.387Z,128
2016-08-13T11:59:55.392Z,128
2016-08-13T12:00:55.403Z,124
2016-08-13T12:01:55.403Z,128
2016-08-13T12:02:55.400Z,128
2016-08-13T12:03:54.683Z,124
2016-08-13T12:04:55.404Z,124
2016-08-13T12:05:55.408Z,120
2016-08-13T12:06:54.220Z,124
2016-08-13T12:07:55.417Z,120
2016-08-13T12:08:55.415Z,120
2016-08-13T12:09:55.425Z,120
2016-08-13T12:10:55.431Z,120
2016-08-13T12:11:55.428Z,120
2016-08-13T12:12:55.424Z,120
2016-08-13T12:13:55.424Z,120
2016-08-13T12:14:55.435Z,116
2016-08-13T12:15:55.432Z,116
2016-08-13T12:16:55.434Z,116
2016-08-13T12:17:55.437Z,116
2016-08-13T12:18:54.720Z,112
2016-08-13T12:19:55.440Z,116
2016-08-13T12:20:55.444Z,112
2016-08-13T12:21:55.444Z,116
2016-08-13T12:22:55.448Z,112
2016-08-13T12:23:55.453Z,108
2016-08-13T12:24:55.453Z,112
2016-08-13T12:25:54.736Z,112
2016-08-13T12:27:55.469Z,112
2016-08-13T12:28:55.456Z,112
2016-08-13T12:29:55.477Z,108
2016-08-13T12:30:55.464Z,108
2016-08-13T12:31:55.470Z,108
2016-08-13T12:32:55.472Z,108
2016-08-13T12:33:55.473Z,104
2016-08-13T12:34:55.476Z,108
2016-08-13T12:35:55.485Z,108
2016-08-13T12:36:55.481Z,104
2016-08-13T12:37:55.488Z,104
2016-08-13T12:38:55.485Z,104
2016-08-13T12:39:55.489Z,104
2016-08-13T12:40:55.494Z,104
2016-08-13T12:41:55.493Z,104
2016-08-13T12:42:55.500Z,100
2016-08-13T12:43:55.493Z,100
2016-08-13T12:44:55.505Z,100
2016-08-13T12:45:55.501Z,100
2016-08-13T12:46:55.509Z,100
2016-08-13T12:47:55.505Z,100
2016-08-13T12:48:55.509Z,96
2016-08-13T12:49:54.793Z,96
2016-08-13T12:50:55.512Z,96
2016-08-13T12:51:55.513Z,96
2016-08-13T12:52:55.526Z,96
2016-08-13T12:53:55.521Z,96
2016-08-13T12:54:55.534Z,96
2016-08-13T12:55:55.530Z,96
2016-08-13T12:56:55.526Z,92
2016-08-13T12:57:55.529Z,92
2016-08-13T12:58:55.526Z,96
2016-08-13T12:59:55.534Z,96
2016-08-13T13:00:55.533Z,92
2016-08-13T13:01:55.546Z,92
2016-08-13T13:02:55.545Z,96
2016-08-13T13:03:55.541Z,92
2016-08-13T13:04:55.546Z,92
2016-08-13T13:05:55.553Z,92
2016-08-13T13:06:54.837Z,92
2016-08-13T13:07:55.558Z,92
2016-08-13T13:08:54.850Z,92
2016-08-13T13:09:55.554Z,92
2016-08-13T13:10:55.562Z,92
2016-08-13T13:11:55.558Z,84
2016-08-13T13:12:55.562Z,84
2016-08-13T13:13:55.563Z,88
2016-08-13T13:14:55.566Z,80
2016-08-13T13:15:55.569Z,80
2016-08-13T13:16:55.569Z,84
2016-08-13T13:17:55.578Z,84
2016-08-13T13:18:55.582Z,88
2016-08-13T13:19:55.583Z,84
2016-08-13T13:20:55.579Z,84
2016-08-13T13:21:55.579Z,84
2016-08-13T13:22:54.858Z,84
2016-08-13T13:23:55.586Z,84
2016-08-13T13:24:55.578Z,80
2016-08-13T13:25:55.591Z,84
2016-08-13T13:26:55.590Z,80
2016-08-13T13:27:55.594Z,80
2016-08-13T13:28:55.594Z,84
2016-08-13T13:29:55.599Z,80
2016-08-13T13:30:55.602Z,80
2016-08-13T13:31:55.603Z,80
2016-08-13T13:32:55.603Z,76
2016-08-13T13:33:55.607Z,76
2016-08-13T13:34:55.619Z,84
2016-08-13T13:35:55.611Z,80
2016-08-13T13:36:55.614Z,80
2016-08-13T13:37:54.895Z,80
2016-08-13T13:38:55.635Z,76
2016-08-13T13:39:55.619Z,80
2016-08-13T13:40:55.625Z,80
2016-08-13T13:41:54.911Z,80
2016-08-13T13:42:55.623Z,76
2016-08-13T13:43:55.626Z,76
2016-08-13T13:44:55.631Z,76
2016-08-13T13:45:55.627Z,76
2016-08-13T13:46:55.635Z,72
2016-08-13T13:47:55.631Z,76
2016-08-13T13:48:54.919Z,76
2016-08-13T13:49:55.638Z,72
2016-08-13T13:50:55.642Z,72